Time;durP1;ratioP1;P1;durP2;ratioP2;P2;SDS_P1;SDS_P2;PMS_P1;PMS_P2;Temp;Humidity;BMP_temperature;BMP_pressure;BME280_temperature;BME280_humidity;BME280_pressure;Samples;Min_cycle;Max_cycle;Signal;HPM_P1;HPM_P2
2023/01/02 00:01:38;;;;;;;102.10;61.90;;;;;;;3.88;84.28;99536.23;86451;1288;22468;-76
2023/01/02 00:03:41;;;;;;;98.60;60.50;;;;;;;3.79;84.25;99520.86;86241;1289;27023;-77
2023/01/02 00:05:42;;;;;;;107.90;63.60;;;;;;;3.80;84.36;99529.02;86215;1312;23005;-76
2023/01/02 00:07:45;;;;;;;103.20;60.20;;;;;;;3.74;84.33;99524.39;86152;1291;98862;-77
2023/01/02 00:09:47;;;;;;;100.90;59.60;;;;;;;3.70;84.33;99523.40;86358;1289;22445;-77
2023/01/02 00:11:48;;;;;;;104.70;61.20;;;;;;;3.65;84.27;99524.48;86270;1280;23334;-75
2023/01/02 00:13:50;;;;;;;113.60;65.10;;;;;;;3.64;84.41;99523.48;86050;1290;98308;-76
2023/01/02 00:15:52;;;;;;;98.50;62.60;;;;;;;3.61;84.59;99523.85;86281;1282;26607;-76
2023/01/02 00:17:53;;;;;;;111.10;63.70;;;;;;;3.58;84.49;99520.41;86005;1283;22547;-77
2023/01/02 00:19:55;;;;;;;118.30;67.40;;;;;;;3.55;84.48;99522.17;86054;1288;99361;-76
2023/01/02 00:21:57;;;;;;;110.30;65.60;;;;;;;3.53;84.47;99523.23;86043;1295;22733;-77
2023/01/02 00:23:59;;;;;;;112.40;64.70;;;;;;;3.51;84.60;99522.75;85948;1290;22730;-76
2023/01/02 00:26:01;;;;;;;101.10;62.00;;;;;;;3.49;84.50;99519.10;85975;1286;99365;-77
2023/01/02 00:28:02;;;;;;;104.10;62.80;;;;;;;3.45;84.45;99518.11;86042;1281;22888;-78
2023/01/02 00:30:05;;;;;;;121.50;66.70;;;;;;;3.41;84.33;99520.94;86174;1288;22729;-78
2023/01/02 00:32:06;;;;;;;113.00;66.20;;;;;;;3.38;84.43;99519.75;86063;1289;98237;-76
2023/01/02 00:34:08;;;;;;;109.70;64.40;;;;;;;3.35;84.39;99521.52;86255;1289;25990;-77
2023/01/02 00:36:11;;;;;;;110.50;66.90;;;;;;;3.34;84.48;99525.88;86139;1289;24272;-77
2023/01/02 00:38:13;;;;;;;112.80;64.10;;;;;;;3.32;84.54;99526.59;85977;1294;98722;-76
2023/01/02 00:40:15;;;;;;;114.20;68.20;;;;;;;3.30;84.29;99525.73;86126;1288;22727;-76
2023/01/02 00:42:16;;;;;;;119.10;68.60;;;;;;;3.28;84.42;99525.77;86024;1288;22957;-76
2023/01/02 00:44:18;;;;;;;117.70;67.90;;;;;;;3.26;84.39;99525.42;86106;1292;99223;-76
2023/01/02 00:46:20;;;;;;;108.00;62.60;;;;;;;3.24;84.69;99522.66;86294;1309;22545;-76
2023/01/02 00:48:22;;;;;;;114.40;69.30;;;;;;;3.20;84.53;99523.05;86186;1303;22651;-76
2023/01/02 00:50:23;;;;;;;119.90;65.70;;;;;;;3.19;84.58;99520.46;86049;1300;99174;-76
2023/01/02 00:52:25;;;;;;;128.40;65.60;;;;;;;3.16;84.43;99524.30;86176;1287;24386;-77
2023/01/02 00:54:27;;;;;;;112.50;64.50;;;;;;;3.13;84.40;99522.75;85935;1315;25866;-76
2023/01/02 00:56:29;;;;;;;124.50;70.80;;;;;;;3.10;84.53;99520.37;86127;1312;99486;-77
2023/01/02 00:58:31;;;;;;;131.90;72.30;;;;;;;3.10;84.62;99521.41;86177;1308;24227;-76
2023/01/02 01:00:32;;;;;;;120.10;71.20;;;;;;;3.10;84.43;99518.45;86828;1312;22469;-76
2023/01/02 01:02:34;;;;;;;125.40;72.10;;;;;;;3.07;84.58;99518.65;87228;1313;98555;-78
2023/01/02 01:04:36;;;;;;;115.20;65.80;;;;;;;3.04;84.31;99521.11;86595;1296;22483;-78
2023/01/02 01:06:38;;;;;;;107.70;61.30;;;;;;;3.03;84.64;99517.65;86469;1304;23309;-77
2023/01/02 01:08:40;;;;;;;119.70;65.10;;;;;;;3.00;84.45;99521.14;86444;1295;99109;-77
2023/01/02 01:10:41;;;;;;;123.40;70.30;;;;;;;2.98;84.53;99520.30;86122;1288;228991;-78
2023/01/02 01:12:43;;;;;;;117.00;67.90;;;;;;;2.97;84.62;99521.52;86237;1295;22947;-78
2023/01/02 01:14:45;;;;;;;123.10;70.10;;;;;;;2.95;84.73;99518.07;86059;1293;99203;-77
2023/01/02 01:16:47;;;;;;;115.00;70.60;;;;;;;2.94;84.65;99516.00;86217;1291;24204;-77
2023/01/02 01:18:53;;;;;;;122.10;71.40;;;;;;;2.91;84.66;99514.98;86328;1295;24246;-76
2023/01/02 01:20:54;;;;;;;117.10;69.80;;;;;;;2.88;84.59;99512.73;86257;1287;98700;-77
2023/01/02 01:22:56;;;;;;;111.50;69.60;;;;;;;2.88;84.53;99511.86;86135;1304;22643;-76
2023/01/02 01:24:58;;;;;;;118.60;69.40;;;;;;;2.87;84.60;99511.87;86193;1298;25879;-80
2023/01/02 01:27:00;;;;;;;118.00;71.70;;;;;;;2.86;84.50;99509.98;86006;1310;98111;-77
2023/01/02 01:29:02;;;;;;;110.10;68.40;;;;;;;2.85;84.64;99507.39;86059;1296;22533;-76
2023/01/02 01:31:09;;;;;;;118.00;69.90;;;;;;;2.82;84.64;99502.71;85991;1298;24332;-77
2023/01/02 01:33:10;;;;;;;126.00;74.50;;;;;;;2.79;84.69;99499.63;86103;1281;99344;-78
2023/01/02 01:35:13;;;;;;;130.40;76.50;;;;;;;2.79;84.81;99503.96;86095;1293;22488;-77
2023/01/02 01:37:15;;;;;;;122.30;75.00;;;;;;;2.78;84.55;99501.35;86154;1311;22586;-78
2023/01/02 01:39:16;;;;;;;135.00;77.00;;;;;;;2.77;84.68;99505.37;86065;1294;98149;-77
2023/01/02 01:41:21;;;;;;;140.30;76.80;;;;;;;2.78;84.92;99503.63;86145;1298;22685;-76
2023/01/02 01:43:41;;;;;;;126.50;74.90;;;;;;;2.78;84.93;99501.19;86482;1295;25932;-76
2023/01/02 01:45:43;;;;;;;129.10;76.00;;;;;;;2.77;84.83;99493.23;86124;1293;22529;-78
2023/01/02 01:47:50;;;;;;;133.30;71.70;;;;;;;2.77;84.98;99493.21;86186;1303;22509;-77
2023/01/02 01:50:01;;;;;;;118.00;71.80;;;;;;;2.76;85.05;99489.58;86125;1310;98226;-77
2023/01/02 01:52:08;;;;;;;111.80;67.90;;;;;;;2.75;85.11;99490.64;86069;1290;22588;-78
2023/01/02 01:54:14;;;;;;;111.00;63.10;;;;;;;2.71;84.83;99488.92;86137;1314;25400;-79
2023/01/02 01:56:16;;;;;;;107.90;61.50;;;;;;;2.67;84.61;99484.45;85913;1289;98187;-77
2023/01/02 01:58:28;;;;;;;107.90;61.30;;;;;;;2.64;84.67;99479.61;86106;1296;23303;-78
2023/01/02 02:00:31;;;;;;;105.80;61.50;;;;;;;2.62;84.95;99482.93;86026;1307;22682;-79
2023/01/02 02:02:33;;;;;;;106.70;62.20;;;;;;;2.60;84.87;99477.57;86066;1296;98807;-78
2023/01/02 02:04:35;;;;;;;102.00;57.30;;;;;;;2.59;85.04;99476.36;86169;1296;22520;-78
2023/01/02 02:06:37;;;;;;;91.70;54.90;;;;;;;2.53;84.87;99473.79;86137;1281;22612;-77
2023/01/02 02:09:00;;;;;;;100.70;58.90;;;;;;;2.46;84.78;99478.20;86002;1298;98151;-78
2023/01/02 02:11:03;;;;;;;101.30;57.50;;;;;;;2.43;84.96;99477.16;86336;1295;22885;-78
2023/01/02 02:13:04;;;;;;;103.10;56.60;;;;;;;2.42;84.81;99483.94;86220;1313;22739;-79
2023/01/02 02:15:13;;;;;;;91.60;54.00;;;;;;;2.39;84.93;99485.70;86229;1312;100246;-78
2023/01/02 02:17:27;;;;;;;94.20;52.00;;;;;;;2.38;84.97;99483.79;86271;1288;23950;-77
2023/01/02 02:19:37;;;;;;;85.10;51.50;;;;;;;2.36;84.77;99484.49;86155;1295;24439;-77
2023/01/02 02:21:54;;;;;;;83.10;49.90;;;;;;;2.34;84.90;99483.29;86227;1294;98923;-76
2023/01/02 02:24:11;;;;;;;88.50;48.40;;;;;;;2.32;85.24;99485.75;86178;1288;22508;-77
2023/01/02 02:26:18;;;;;;;88.90;48.50;;;;;;;2.30;85.07;99488.17;86234;1294;99137;-77
2023/01/02 02:29:03;;;;;;;92.20;49.60;;;;;;;2.28;85.12;99483.85;86246;1290;25074;-77
2023/01/02 02:31:19;;;;;;;83.70;46.30;;;;;;;2.29;85.01;99478.83;86191;1305;24233;-77
2023/01/02 02:33:39;;;;;;;87.80;48.10;;;;;;;2.28;85.09;99484.21;85957;1312;99047;-78
2023/01/02 02:36:03;;;;;;;95.60;52.90;;;;;;;2.28;85.38;99481.61;86196;1295;22656;-77
2023/01/02 02:38:14;;;;;;;105.20;54.50;;;;;;;2.30;85.21;99483.67;86087;1288;99210;-78
2023/01/02 02:40:33;;;;;;;92.50;51.30;;;;;;;2.32;85.35;99483.14;86035;1294;23542;-77
2023/01/02 02:42:50;;;;;;;96.20;50.60;;;;;;;2.30;85.32;99481.58;86145;1310;22500;-77
2023/01/02 02:45:09;;;;;;;82.40;47.40;;;;;;;2.29;85.31;99480.73;86087;1304;99003;-77
2023/01/02 02:47:24;;;;;;;83.50;46.30;;;;;;;2.25;85.40;99472.42;86042;1290;22609;-76
2023/01/02 02:49:32;;;;;;;83.20;44.30;;;;;;;2.20;85.15;99462.40;86064;1289;22518;-77
2023/01/02 02:51:41;;;;;;;82.20;46.80;;;;;;;2.16;85.16;99461.22;86083;1288;98173;-78
2023/01/02 02:53:51;;;;;;;84.90;46.60;;;;;;;2.15;85.11;99461.91;85909;1297;24259;-77
2023/01/02 02:55:56;;;;;;;86.90;47.00;;;;;;;2.14;85.42;99460.71;86006;1304;98827;-77
2023/01/02 02:57:59;;;;;;;83.90;49.20;;;;;;;2.13;84.81;99456.21;86115;1296;22516;-76
2023/01/02 03:00:05;;;;;;;78.60;44.20;;;;;;;2.12;85.05;99457.08;86067;1295;22659;-76
2023/01/02 03:02:12;;;;;;;86.40;48.20;;;;;;;2.08;85.02;99457.63;86103;1300;98275;-78
2023/01/02 03:04:19;;;;;;;85.50;49.50;;;;;;;2.02;84.67;99460.45;85917;1299;23877;-77
2023/01/02 03:06:50;;;;;;;87.20;47.50;;;;;;;1.99;84.69;99459.77;85952;1297;26473;-78
2023/01/02 03:09:29;;;;;;;103.70;46.30;;;;;;;1.97;84.87;99459.08;85893;1299;98003;-77
2023/01/02 03:11:43;;;;;;;82.90;45.20;;;;;;;1.90;84.69;99463.62;86064;1295;25421;-78
2023/01/02 03:14:05;;;;;;;75.80;46.60;;;;;;;1.85;84.90;99462.08;85949;1296;99354;-76
2023/01/02 03:16:26;;;;;;;76.40;44.70;;;;;;;1.84;84.99;99461.91;86094;1312;22486;-76
2023/01/02 03:18:39;;;;;;;84.20;45.10;;;;;;;1.81;84.87;99462.27;86051;1291;22962;-76
2023/01/02 03:20:45;;;;;;;87.00;44.90;;;;;;;1.76;84.95;99455.55;86086;1296;98408;-76
2023/01/02 03:22:52;;;;;;;78.70;45.30;;;;;;;1.73;84.94;99461.97;86162;1296;24686;-77
2023/01/02 03:24:55;;;;;;;84.70;45.80;;;;;;;1.73;84.80;99463.36;86070;1300;22470;-77
2023/01/02 03:27:14;;;;;;;84.40;45.30;;;;;;;1.72;85.20;99467.86;86021;1312;98140;-77
2023/01/02 03:29:27;;;;;;;69.40;42.00;;;;;;;1.71;85.08;99462.85;86107;1296;22722;-77
2023/01/02 03:31:33;;;;;;;76.20;43.70;;;;;;;1.72;85.05;99466.13;86117;1288;22762;-77
2023/01/02 03:33:42;;;;;;;72.90;40.70;;;;;;;1.71;85.15;99462.67;86173;1297;99232;-77
2023/01/02 03:35:52;;;;;;;72.00;39.80;;;;;;;1.71;85.25;99460.41;86425;1288;22491;-77
2023/01/02 03:37:56;;;;;;;65.80;37.60;;;;;;;1.63;85.07;99460.10;86021;1296;99959;-78
2023/01/02 03:40:07;;;;;;;69.30;37.80;;;;;;;1.54;84.86;99458.58;86017;1290;22526;-77
2023/01/02 03:42:17;;;;;;;71.40;38.20;;;;;;;1.53;85.11;99458.07;86113;1298;22598;-77
2023/01/02 03:44:23;;;;;;;71.30;40.80;;;;;;;1.50;85.12;99455.82;86011;1302;98652;-78
2023/01/02 03:46:37;;;;;;;68.80;39.20;;;;;;;1.50;85.19;99455.13;86167;1304;22709;-77
2023/01/02 03:48:49;;;;;;;68.80;37.30;;;;;;;1.48;85.14;99450.47;86190;1302;22609;-77
2023/01/02 03:50:54;;;;;;;75.20;40.00;;;;;;;1.46;85.35;99448.04;86041;1298;99282;-78
2023/01/02 03:52:56;;;;;;;67.00;36.80;;;;;;;1.45;84.83;99447.20;86055;1297;26639;-78
2023/01/02 03:55:00;;;;;;;64.80;40.60;;;;;;;1.40;85.17;99449.63;86042;1288;22500;-77
2023/01/02 03:57:44;;;;;;;67.30;39.30;;;;;;;1.39;85.21;99452.58;86012;1290;99219;-76
2023/01/02 04:00:09;;;;;;;77.80;42.30;;;;;;;1.37;85.30;99452.77;87823;1310;22515;-77
2023/01/02 04:02:14;;;;;;;73.80;43.10;;;;;;;1.36;85.25;99451.72;87688;1312;98275;-75
2023/01/02 04:04:40;;;;;;;78.10;40.60;;;;;;;1.35;85.04;99448.44;87722;1304;22600;-76
2023/01/02 04:06:49;;;;;;;67.40;39.40;;;;;;;1.34;85.33;99445.48;87893;1312;22510;-77
2023/01/02 04:09:04;;;;;;;73.50;40.40;;;;;;;1.29;85.06;99443.10;87684;1304;98739;-76
2023/01/02 04:11:08;;;;;;;67.00;37.60;;;;;;;1.25;84.98;99435.65;87763;1296;22484;-76
2023/01/02 04:13:17;;;;;;;66.50;39.30;;;;;;;1.20;85.10;99435.84;87735;1312;22599;-76
2023/01/02 04:15:24;;;;;;;69.60;37.30;;;;;;;1.15;85.03;99434.30;87728;1314;99041;-77
2023/01/02 04:17:29;;;;;;;60.20;36.00;;;;;;;1.13;84.78;99437.42;87795;1300;25278;-77
2023/01/02 04:19:42;;;;;;;67.20;37.90;;;;;;;1.11;85.06;99433.27;87702;1304;25715;-75
2023/01/02 04:21:47;;;;;;;62.20;36.50;;;;;;;1.10;84.86;99435.34;87725;1312;97798;-76
2023/01/02 04:23:54;;;;;;;73.60;39.20;;;;;;;1.09;84.78;99439.49;87738;1315;22986;-76
2023/01/02 04:26:00;;;;;;;65.60;38.50;;;;;;;1.08;84.96;99439.17;87843;1304;98823;-76
2023/01/02 04:28:14;;;;;;;67.70;37.90;;;;;;;1.07;85.19;99435.70;87975;1309;22503;-76
2023/01/02 04:30:16;;;;;;;65.60;33.70;;;;;;;1.08;85.15;99436.57;87816;1297;22503;-76
2023/01/02 04:32:42;;;;;;;57.30;33.20;;;;;;;1.02;84.93;99428.77;87773;1302;98637;-77
2023/01/02 04:34:47;;;;;;;60.90;33.60;;;;;;;0.97;85.07;99430.36;87746;1311;23949;-77
2023/01/02 04:36:49;;;;;;;61.60;32.50;;;;;;;1.00;84.90;99436.06;87851;1295;22518;-76
2023/01/02 04:38:51;;;;;;;57.90;33.80;;;;;;;1.01;84.95;99440.73;87603;1290;98324;-76
2023/01/02 04:40:52;;;;;;;57.30;32.10;;;;;;;1.01;85.30;99438.83;87714;1299;22967;-77
2023/01/02 04:42:54;;;;;;;59.30;33.10;;;;;;;1.05;85.03;99438.46;87687;1309;22468;-77
2023/01/02 04:44:56;;;;;;;56.90;30.20;;;;;;;1.04;85.29;99436.91;87882;1306;97894;-77
2023/01/02 04:46:58;;;;;;;53.80;30.00;;;;;;;1.04;85.08;99439.35;87773;1300;22520;-77
2023/01/02 04:48:59;;;;;;;57.20;32.60;;;;;;;1.05;85.04;99440.90;87915;1306;25372;-76
2023/01/02 04:51:01;;;;;;;67.40;34.50;;;;;;;1.06;85.24;99441.07;87849;1312;98060;-76
2023/01/02 04:53:03;;;;;;;62.70;35.20;;;;;;;1.07;85.21;99437.27;88251;1294;22225;-76
2023/01/02 04:55:09;;;;;;;59.90;33.10;;;;;;;1.09;85.16;99433.09;88054;1286;22904;-76
2023/01/02 04:57:11;;;;;;;58.20;32.40;;;;;;;1.10;85.32;99431.38;87827;1314;98663;-76
2023/01/02 04:59:13;;;;;;;57.10;32.40;;;;;;;1.11;85.48;99429.64;87841;1304;22514;-76
2023/01/02 05:01:18;;;;;;;60.00;31.00;;;;;;;1.12;85.35;99427.38;87711;1306;22507;-76
2023/01/02 05:03:20;;;;;;;56.50;32.90;;;;;;;1.14;85.51;99425.29;87880;1310;99225;-77
2023/01/02 05:05:22;;;;;;;56.70;31.60;;;;;;;1.16;85.36;99422.00;87831;1296;22530;-77
2023/01/02 05:07:23;;;;;;;59.20;32.70;;;;;;;1.17;85.39;99417.86;87866;1313;22508;-76
2023/01/02 05:09:25;;;;;;;57.60;34.70;;;;;;;1.20;85.32;99419.91;87935;1309;97899;-76
2023/01/02 05:11:27;;;;;;;61.60;35.20;;;;;;;1.16;85.62;99403.65;87897;1317;22617;-77
2023/01/02 05:13:28;;;;;;;61.60;32.40;;;;;;;1.24;85.57;99409.52;87824;1313;22522;-77
2023/01/02 05:15:30;;;;;;;57.10;33.40;;;;;;;1.26;85.72;99406.91;87764;1303;97895;-76
2023/01/02 05:17:37;;;;;;;69.60;35.90;;;;;;;1.28;85.79;99402.76;87788;1304;22564;-76
2023/01/02 05:19:38;;;;;;;62.60;34.50;;;;;;;1.30;85.70;99400.31;87907;1296;22514;-76
2023/01/02 05:24:02;;;;;;;62.20;33.00;;;;;;;1.33;85.73;99400.30;87812;1306;22501;-78
2023/01/02 05:26:10;;;;;;;65.10;34.70;;;;;;;1.33;85.68;99400.64;87810;1304;98445;-76
2023/01/02 05:28:11;;;;;;;66.40;36.60;;;;;;;1.33;85.77;99396.67;87801;1306;22677;-76
2023/01/02 05:30:13;;;;;;;65.70;36.80;;;;;;;1.34;85.70;99393.20;87841;1312;24263;-77
2023/01/02 05:32:15;;;;;;;58.40;32.10;;;;;;;1.36;85.77;99390.09;87914;1287;98716;-76
2023/01/02 05:34:16;;;;;;;58.10;32.90;;;;;;;1.39;85.75;99388.16;87998;1309;22523;-76
2023/01/02 05:36:19;;;;;;;55.90;33.20;;;;;;;1.40;85.80;99387.30;87806;1297;22520;-76
2023/01/02 05:38:21;;;;;;;51.40;31.70;;;;;;;1.40;85.62;99385.73;87708;1296;99567;-76
2023/01/02 05:40:22;;;;;;;58.00;32.20;;;;;;;1.40;85.76;99385.92;87898;1294;22827;-75
2023/01/02 05:42:24;;;;;;;58.10;32.80;;;;;;;1.39;85.76;99385.73;87797;1311;22510;-78
2023/01/02 05:44:26;;;;;;;52.10;30.70;;;;;;;1.38;85.79;99382.63;87683;1296;98119;-77
2023/01/02 05:46:27;;;;;;;54.70;32.20;;;;;;;1.35;85.54;99382.48;87623;1307;23352;-76
2023/01/02 05:48:29;;;;;;;56.40;32.00;;;;;;;1.33;85.49;99380.56;87638;1306;22533;-76
2023/01/02 05:50:30;;;;;;;53.10;32.60;;;;;;;1.32;85.37;99380.40;87670;1312;98279;-77
2023/01/02 05:52:32;;;;;;;56.80;33.10;;;;;;;1.31;85.77;99378.85;86998;1305;22721;-76
2023/01/02 05:54:34;;;;;;;61.40;35.60;;;;;;;1.30;85.81;99378.69;85916;1298;22529;-77
2023/01/02 05:56:36;;;;;;;67.40;38.40;;;;;;;1.19;85.57;99363.67;85951;1281;99249;-77
2023/01/02 05:58:40;;;;;;;69.70;37.00;;;;;;;1.29;85.80;99383.35;85966;1291;22520;-76
2023/01/02 06:00:42;;;;;;;61.70;36.80;;;;;;;1.26;85.38;99381.47;86085;1283;23950;-77
2023/01/02 06:02:45;;;;;;;57.50;34.20;;;;;;;1.21;85.70;99377.85;86000;1288;98045;-77
2023/01/02 06:04:48;;;;;;;62.70;34.80;;;;;;;1.15;85.38;99375.27;85990;1282;22573;-76
2023/01/02 06:06:49;;;;;;;62.20;35.50;;;;;;;1.12;85.48;99372.86;86003;1288;23230;-76
2023/01/02 06:08:52;;;;;;;66.40;36.00;;;;;;;1.11;85.69;99373.74;85897;1284;98088;-76
2023/01/02 06:10:53;;;;;;;51.10;33.10;;;;;;;1.11;85.66;99370.27;85950;1289;22522;-76
2023/01/02 06:12:56;;;;;;;62.00;32.60;;;;;;;1.10;85.52;99372.52;86051;1285;23388;-76
2023/01/02 06:14:57;;;;;;;53.00;31.40;;;;;;;1.12;85.81;99377.03;86185;1280;98565;-77
2023/01/02 06:16:59;;;;;;;58.90;32.70;;;;;;;1.09;85.39;99369.42;86153;1288;24264;-76
2023/01/02 06:19:02;;;;;;;50.30;30.20;;;;;;;1.13;85.87;99379.61;86170;1281;24798;-77
2023/01/02 06:21:07;;;;;;;61.00;33.50;;;;;;;1.12;86.07;99377.55;85949;1281;98928;-77
2023/01/02 06:23:10;;;;;;;61.10;33.00;;;;;;;1.14;85.70;99380.83;86095;1282;22609;-77
2023/01/02 06:25:12;;;;;;;67.50;34.90;;;;;;;1.14;85.95;99382.38;86104;1281;25376;-76
2023/01/02 06:27:14;;;;;;;67.10;36.30;;;;;;;1.16;86.06;99383.76;85914;1287;98030;-74
2023/01/02 06:29:15;;;;;;;61.50;36.60;;;;;;;1.21;86.31;99381.14;86059;1288;26578;-75
2023/01/02 06:31:19;;;;;;;70.90;39.70;;;;;;;1.24;86.12;99379.06;85864;1290;22544;-75
2023/01/02 06:33:20;;;;;;;79.60;41.70;;;;;;;1.28;86.18;99383.54;85875;1284;99171;-75
2023/01/02 06:35:22;;;;;;;74.40;39.30;;;;;;;1.29;86.27;99379.05;85917;1280;23663;-76
2023/01/02 06:37:24;;;;;;;64.70;36.70;;;;;;;1.35;86.48;99387.84;86040;1280;22534;-75
2023/01/02 06:39:26;;;;;;;69.10;37.00;;;;;;;1.37;86.17;99388.16;85948;1281;100070;-75
2023/01/02 06:41:28;;;;;;;71.80;37.00;;;;;;;1.38;86.22;99393.88;85887;1283;23206;-75
2023/01/02 06:43:31;;;;;;;59.70;36.90;;;;;;;1.40;86.02;99392.83;85973;1288;24640;-74
2023/01/02 06:45:33;;;;;;;66.60;34.90;;;;;;;1.42;86.24;99397.15;86025;1281;99069;-75
2023/01/02 06:47:35;;;;;;;55.90;32.50;;;;;;;1.42;86.05;99395.94;86148;1278;22492;-76
2023/01/02 06:49:36;;;;;;;57.40;33.70;;;;;;;1.41;86.37;99398.38;85957;1287;22541;-74
2023/01/02 06:51:38;;;;;;;57.10;32.90;;;;;;;1.39;86.31;99397.52;85870;1288;98832;-76
2023/01/02 06:53:41;;;;;;;57.30;31.70;;;;;;;1.39;86.15;99396.99;86031;1281;22562;-75
2023/01/02 06:55:57;;;;;;;61.30;30.80;;;;;;;1.41;85.93;99400.11;86182;1287;22792;-75
2023/01/02 06:57:58;;;;;;;55.60;29.10;;;;;;;1.42;86.28;99405.12;85971;1288;24290;-75
2023/01/02 07:00:00;;;;;;;67.90;32.60;;;;;;;1.39;86.22;99405.83;85993;1283;22619;-75
2023/01/02 07:02:02;;;;;;;61.90;31.40;;;;;;;1.38;86.25;99407.38;85877;1284;99244;-76
2023/01/02 07:04:04;;;;;;;65.80;32.40;;;;;;;1.39;86.05;99409.80;86037;1286;23395;-75
2023/01/02 07:06:12;;;;;;;64.00;35.40;;;;;;;1.43;86.29;99407.89;86138;1288;22492;-74
2023/01/02 07:08:13;;;;;;;65.90;36.00;;;;;;;1.47;86.39;99403.37;86033;1288;100050;-75
2023/01/02 07:10:15;;;;;;;65.30;37.60;;;;;;;1.53;86.46;99403.52;85892;1290;24809;-75
2023/01/02 07:12:17;;;;;;;65.10;37.10;;;;;;;1.58;86.48;99404.88;86011;1287;23906;-75
2023/01/02 07:14:19;;;;;;;72.40;39.70;;;;;;;1.62;86.36;99402.42;85952;1290;99622;-75
2023/01/02 07:16:22;;;;;;;61.50;39.20;;;;;;;1.66;86.43;99402.42;85948;1288;22597;-76
2023/01/02 07:18:23;;;;;;;60.00;35.70;;;;;;;1.69;86.66;99400.50;86014;1281;22506;-75
2023/01/02 07:20:25;;;;;;;62.00;38.20;;;;;;;1.73;86.48;99399.08;85966;1280;98997;-76
2023/01/02 07:22:27;;;;;;;68.70;36.90;;;;;;;1.76;86.42;99400.63;85956;1284;25369;-75
2023/01/02 07:24:28;;;;;;;60.40;34.60;;;;;;;1.77;86.41;99400.96;85853;1291;22884;-76
2023/01/02 07:26:30;;;;;;;57.10;33.20;;;;;;;1.78;86.46;99401.13;86022;1288;99468;-75
2023/01/02 07:28:35;;;;;;;63.40;35.40;;;;;;;1.79;86.27;99401.99;86122;1281;22480;-77
2023/01/02 07:30:37;;;;;;;57.30;35.70;;;;;;;1.80;86.16;99402.33;85959;1283;22540;-77
2023/01/02 07:32:38;;;;;;;56.20;33.20;;;;;;;1.81;86.24;99401.98;85935;1283;99209;-76
2023/01/02 07:34:40;;;;;;;53.90;32.30;;;;;;;1.84;86.32;99400.92;85984;1288;26629;-74
2023/01/02 07:36:42;;;;;;;57.40;34.70;;;;;;;1.84;86.09;99400.77;86026;1280;22482;-75
2023/01/02 07:38:48;;;;;;;65.00;38.20;;;;;;;1.85;86.08;99408.02;85934;1290;99123;-75
2023/01/02 07:40:49;;;;;;;64.90;35.10;;;;;;;1.84;86.51;99405.95;85926;1287;22510;-75
2023/01/02 07:42:53;;;;;;;63.50;37.10;;;;;;;1.87;86.35;99409.06;85999;1287;22570;-76
2023/01/02 07:44:54;;;;;;;63.70;38.80;;;;;;;1.90;86.46;99405.74;85914;1280;99745;-77
2023/01/02 07:46:56;;;;;;;67.90;39.10;;;;;;;1.93;86.53;99405.91;85991;1288;25274;-76
2023/01/02 07:48:58;;;;;;;69.30;39.30;;;;;;;1.94;86.45;99402.79;86032;1287;22529;-77
2023/01/02 07:51:01;;;;;;;68.80;39.80;;;;;;;1.97;86.54;99403.10;85934;1283;97949;-75
2023/01/02 07:53:03;;;;;;;63.10;37.80;;;;;;;2.01;86.44;99396.83;86090;1286;22604;-76
2023/01/02 07:55:06;;;;;;;62.50;41.00;;;;;;;2.05;86.16;99391.44;85855;1283;22475;-76
2023/01/02 07:57:08;;;;;;;68.60;40.70;;;;;;;2.09;86.46;99388.13;85850;1283;99492;-77
2023/01/02 07:59:10;;;;;;;70.50;41.60;;;;;;;2.13;86.51;99390.70;85964;1281;22566;-76
2023/01/02 08:01:11;;;;;;;60.00;38.70;;;;;;;2.17;86.51;99391.01;85906;1290;25345;-76
2023/01/02 08:03:13;;;;;;;71.00;41.40;;;;;;;2.21;86.72;99385.59;85821;1290;99066;-77
2023/01/02 08:05:16;;;;;;;64.80;40.90;;;;;;;2.25;86.40;99390.59;85970;1281;24263;-76
2023/01/02 08:07:17;;;;;;;69.80;40.10;;;;;;;2.31;86.45;99391.25;85975;1312;22628;-76
2023/01/02 08:09:19;;;;;;;66.60;39.00;;;;;;;2.36;86.58;99392.42;86027;1285;100025;-76
2023/01/02 08:11:21;;;;;;;67.80;40.90;;;;;;;2.41;86.47;99393.41;86107;1288;22563;-77
2023/01/02 08:13:26;;;;;;;70.80;39.60;;;;;;;2.46;86.66;99391.45;86020;1280;22737;-76
2023/01/02 08:15:28;;;;;;;72.80;39.90;;;;;;;2.52;86.80;99390.54;86071;1278;97916;-77
2023/01/02 08:17:31;;;;;;;64.30;39.90;;;;;;;2.59;86.68;99393.79;85965;1284;22573;-76
2023/01/02 08:19:33;;;;;;;86.70;40.30;;;;;;;2.65;86.84;99392.15;86119;1288;22487;-76
2023/01/02 08:21:35;;;;;;;77.40;41.20;;;;;;;2.71;86.61;99394.89;86112;1281;99058;-76
2023/01/02 08:23:36;;;;;;;70.20;39.30;;;;;;;2.77;86.52;99399.34;85983;1284;23548;-77
2023/01/02 08:25:38;;;;;;;78.10;42.10;;;;;;;2.83;86.51;99394.76;86151;1286;24281;-77
2023/01/02 08:27:40;;;;;;;63.10;39.20;;;;;;;2.89;86.78;99396.61;85836;1291;99128;-76
2023/01/02 08:29:41;;;;;;;69.40;38.00;;;;;;;2.95;86.56;99397.77;86174;1281;25375;-76
2023/01/02 08:31:43;;;;;;;69.20;39.80;;;;;;;3.00;86.67;99399.63;86204;1280;25314;-77
2023/01/02 08:33:46;;;;;;;69.50;37.80;;;;;;;3.06;86.52;99403.39;86152;1286;97787;-76
2023/01/02 08:35:48;;;;;;;60.60;38.10;;;;;;;3.10;86.79;99407.33;86256;1287;22494;-76
2023/01/02 08:37:50;;;;;;;58.40;36.00;;;;;;;3.14;86.71;99404.17;86235;1281;22507;-76
2023/01/02 08:39:52;;;;;;;57.70;32.10;;;;;;;3.18;86.67;99404.46;86598;1298;97680;-76
2023/01/02 08:41:54;;;;;;;64.80;41.60;;;;;;;3.22;86.78;99402.69;86729;1287;23042;-77
2023/01/02 08:43:55;;;;;;;68.70;39.50;;;;;;;3.27;86.66;99402.81;86251;1283;98590;-76
2023/01/02 08:45:57;;;;;;;61.90;38.60;;;;;;;3.30;86.55;99401.73;86276;1287;22580;-76
2023/01/02 08:47:59;;;;;;;76.90;43.60;;;;;;;3.34;86.78;99403.40;86423;1280;23178;-77
2023/01/02 08:50:00;;;;;;;72.40;44.30;;;;;;;3.38;86.87;99400.41;86330;1286;99155;-76
2023/01/02 08:52:02;;;;;;;76.20;45.50;;;;;;;3.44;86.84;99397.04;86099;1288;22668;-76
2023/01/02 08:54:04;;;;;;;77.60;44.80;;;;;;;3.50;86.89;99399.40;86066;1290;22648;-76
2023/01/02 08:56:40;;;;;;;81.70;43.20;;;;;;;3.55;86.76;99393.44;86054;1288;98290;-75
2023/01/02 08:58:41;;;;;;;91.10;44.10;;;;;;;3.59;86.99;99387.81;85583;1316;22612;-76
2023/01/02 09:00:43;;;;;;;85.10;42.50;;;;;;;3.63;86.75;99386.90;85723;1287;23865;-76
2023/01/02 09:02:45;;;;;;;96.90;44.00;;;;;;;3.67;86.94;99383.71;85626;1292;99756;-75
2023/01/02 09:04:47;;;;;;;81.70;45.90;;;;;;;3.70;86.92;99379.50;85365;1289;22520;-76
2023/01/02 09:06:48;;;;;;;87.80;44.80;;;;;;;3.74;86.82;99381.71;85637;1300;22644;-74
2023/01/02 09:08:52;;;;;;;90.70;45.90;;;;;;;3.77;86.99;99377.14;85540;1293;99508;-76
2023/01/02 09:10:54;;;;;;;84.00;41.00;;;;;;;3.81;86.86;99376.20;85345;1306;22540;-77
2023/01/02 09:12:57;;;;;;;83.60;47.30;;;;;;;3.86;86.93;99375.80;85369;1290;22493;-76
2023/01/02 09:14:59;;;;;;;92.40;52.10;;;;;;;3.93;86.92;99375.36;85472;1288;97937;-76
2023/01/02 09:17:01;;;;;;;79.30;47.30;;;;;;;3.99;86.89;99367.79;85502;1289;22868;-76
2023/01/02 09:19:03;;;;;;;91.70;52.20;;;;;;;4.03;87.07;99363.20;85446;1289;23552;-75
2023/01/02 09:21:05;;;;;;;83.60;50.40;;;;;;;4.07;87.18;99363.14;85528;1294;99262;-75
2023/01/02 09:23:08;;;;;;;88.20;52.10;;;;;;;4.13;86.97;99359.39;85309;1297;25295;-76
2023/01/02 09:25:09;;;;;;;86.30;51.70;;;;;;;4.19;86.98;99356.01;85708;1286;22682;-76
2023/01/02 09:27:11;;;;;;;84.50;49.20;;;;;;;4.23;87.05;99357.48;85222;1289;99464;-76
2023/01/02 09:29:14;;;;;;;85.00;48.00;;;;;;;4.29;86.87;99356.02;85349;1295;22791;-76
2023/01/02 09:31:19;;;;;;;92.30;46.20;;;;;;;4.34;86.89;99353.86;85381;1289;24299;-76
2023/01/02 09:33:22;;;;;;;97.30;55.10;;;;;;;4.38;86.88;99353.61;85462;1289;99068;-76
2023/01/02 09:35:24;;;;;;;158.90;86.00;;;;;;;4.42;86.84;99353.17;85694;1283;24239;-76
2023/01/02 09:37:27;;;;;;;157.20;90.30;;;;;;;4.47;86.80;99351.02;85939;1289;22548;-76
2023/01/02 09:39:29;;;;;;;172.40;93.10;;;;;;;4.51;86.93;99341.36;86037;1281;99765;-77
2023/01/02 09:41:41;;;;;;;138.60;74.40;;;;;;;4.54;86.97;99337.49;86000;1288;22514;-76
2023/01/02 09:43:47;;;;;;;98.10;49.60;;;;;;;4.60;86.97;99334.60;86134;1288;26475;-76